Pilot Boat 53 — SY3201 — position and weather

sailwx.info

Track history (hours):
 
Tides and Currents Weather Stations Pressure Air Temp Water Temp Dewpoint Dewpoint Depression Visibility Wind Speed Wind Dir Waves Ship Positions

Pilot Boat 53

Last reported at 2017-Sep-21 08:29 UTC. Time now 2017-Sep-21 09:01 UTC.
Position N 37°56' E 023°38'.

Length 14 m.

MMSI: 237710200.

Date/timePositionNaut miles runAvg speedWind from/ knotsBaromVisibWave heightAir tempDewpointWater temp
2017-Sep-21 08:29N 37°56' E 023°38'0 0.4
2017-Sep-21 07:59N 37°56' E 023°37'2 2.8
2017-Sep-21 07:24N 37°57' E 023°35'2 4.3
2017-Sep-21 07:00N 37°56' E 023°37'1 1.3
2017-Sep-21 06:30N 37°57' E 023°37'2 3.3
2017-Sep-21 05:57N 37°55' E 023°37'2 4.0
2017-Sep-21 05:22N 37°57' E 023°36'1 3.4
2017-Sep-21 05:00N 37°56' E 023°36'0 0.9
2017-Sep-21 04:30N 37°56' E 023°37'1 2.3
2017-Sep-21 03:59N 37°55' E 023°36'2 3.5
2017-Sep-21 03:29N 37°57' E 023°36'1 1.9
2017-Sep-21 02:59N 37°56' E 023°38'0 0.0
2017-Sep-21 02:26N 37°56' E 023°38'0 0.0
2017-Sep-21 01:59N 37°56' E 023°38'2 3.9
2017-Sep-21 01:30N 37°57' E 023°35'1 1.3
2017-Sep-21 01:00N 37°57' E 023°36'2 4.3
2017-Sep-21 00:28N 37°55' E 023°38'2 4.5
2017-Sep-21 00:00N 37°56' E 023°36'1 2.7
2017-Sep-20 23:30N 37°56' E 023°38'2 3.4
2017-Sep-20 22:58N 37°57' E 023°35'0 0.4
2017-Sep-20 22:29N 37°57' E 023°35'2 4.2
2017-Sep-20 22:00N 37°56' E 023°38'0 0.0
2017-Sep-20 21:30N 37°56' E 023°38'0 0.0
2017-Sep-20 21:00N 37°56' E 023°38'0 0.0
2017-Sep-20 20:21N 37°56' E 023°38'0 0.0
2017-Sep-20 20:00N 37°56' E 023°38'0 0.1
2017-Sep-20 19:30N 37°56' E 023°38'0 0.1
2017-Sep-20 18:58N 37°56' E 023°38'1 2.1
2017-Sep-20 18:30N 37°56' E 023°37'2 2.0
2017-Sep-20 17:45N 37°57' E 023°36'2 5.7
2017-Sep-20 17:29N 37°56' E 023°38'0 0.0
2017-Sep-20 16:57N 37°56' E 023°38'0 0.0
2017-Sep-20 16:27N 37°56' E 023°38'0 0.3
2017-Sep-20 16:01N 37°56' E 023°37'1 2.1
2017-Sep-20 15:30N 37°57' E 023°36'1 2.2
2017-Sep-20 15:00N 37°56' E 023°37'1 0.6
2017-Sep-20 14:00N 37°56' E 023°38'1 3.0
2017-Sep-20 13:30N 37°55' E 023°36'2 4.1
2017-Sep-20 13:00N 37°57' E 023°35'1 1.4
2017-Sep-20 12:30N 37°57' E 023°36'2 4.2
2017-Sep-20 12:00N 37°55' E 023°36'2 4.0
2017-Sep-20 11:30N 37°56' E 023°38'2 3.7
2017-Sep-20 10:58N 37°57' E 023°35'0 0.9
2017-Sep-20 10:28N 37°57' E 023°36'2 3.6
2017-Sep-20 09:57N 37°55' E 023°37'1 2.3
2017-Sep-20 09:28N 37°56' E 023°38'1 2.6
2017-Sep-20 08:59N 37°57' E 023°36'1 2.6
2017-Sep-20 08:30N 37°56' E 023°38'1 2.5
2017-Sep-20 07:59N 37°56' E 023°36'0 0.6
2017-Sep-20 07:14N 37°57' E 023°36'2 7.1
2017-Sep-20 07:00N 37°56' E 023°38'2 3.6
2017-Sep-20 06:29N 37°57' E 023°35'2 3.7
2017-Sep-20 06:00N 37°56' E 023°37'1 1.6
2017-Sep-20 05:30N 37°56' E 023°37'1 1.0
2017-Sep-20 05:00N 37°56' E 023°37'1 1.2
2017-Sep-20 04:29N 37°56' E 023°38'1 2.4
2017-Sep-20 03:54N 37°56' E 023°36'1 2.7
2017-Sep-20 03:27N 37°57' E 023°36'1 3.3
2017-Sep-20 03:00N 37°56' E 023°38'0 0.0
2017-Sep-20 02:30N 37°56' E 023°38'0 0.0
2017-Sep-20 01:57N 37°56' E 023°38'0 0.0
2017-Sep-20 01:30N 37°56' E 023°38'0 0.0
2017-Sep-20 01:00N 37°56' E 023°38'0 0.0
2017-Sep-20 00:30N 37°56' E 023°38'0 0.0
2017-Sep-20 00:00N 37°56' E 023°38'0 0.0
2017-Sep-19 23:30N 37°56' E 023°38'0 0.0
2017-Sep-19 23:00N 37°56' E 023°38'0 0.4
2017-Sep-19 22:30N 37°56' E 023°37'1 1.2
2017-Sep-19 21:22N 37°57' E 023°36'0 0.8
2017-Sep-19 20:59N 37°57' E 023°35'0 0.2
2017-Sep-19 20:29N 37°57' E 023°35'0 0.7
2017-Sep-19 20:00N 37°57' E 023°36'0 0.3
2017-Sep-19 19:28N 37°57' E 023°36'1 3.2
2017-Sep-19 19:00N 37°56' E 023°38'1 3.0
2017-Sep-19 18:30N 37°56' E 023°36'1 1.1
2017-Sep-19 17:43N 37°57' E 023°37'1 3.1
2017-Sep-19 17:31N 37°56' E 023°38'1 1.7
2017-Sep-19 17:00N 37°56' E 023°37'1 1.6
2017-Sep-19 16:30N 37°56' E 023°37'1 2.4
2017-Sep-19 15:57N 37°57' E 023°36'1 1.9
2017-Sep-19 15:30N 37°56' E 023°37'0 0.8
2017-Sep-19 15:00N 37°56' E 023°36'1 1.2
2017-Sep-19 14:27N 37°57' E 023°36'2 3.3
2017-Sep-19 13:59N 37°56' E 023°38'0 0.0
2017-Sep-19 13:28N 37°56' E 023°38'0 0.7
2017-Sep-19 13:00N 37°56' E 023°37'0 0.6
2017-Sep-19 12:26N 37°56' E 023°38'1 2.4
2017-Sep-19 12:00N 37°56' E 023°36'1 1.7
2017-Sep-19 11:29N 37°57' E 023°36'1 3.0
2017-Sep-19 11:00N 37°56' E 023°38'0 0.1
2017-Sep-19 10:30N 37°56' E 023°38'2 2.6
2017-Sep-19 09:43N 37°57' E 023°35'2 9.4
2017-Sep-19 09:30N 37°56' E 023°38'0 0.0
2017-Sep-19 08:58N 37°56' E 023°38'1 3.0
2017-Sep-19 08:29N 37°56' E 023°36'1 2.7
2017-Sep-19 07:59N 37°57' E 023°35'2 3.2
2017-Sep-19 07:25N 37°56' E 023°38'2 4.6
2017-Sep-19 06:57N 37°55' E 023°35'2 2.7
2017-Sep-19 06:16N 37°57' E 023°35'1 3.3
2017-Sep-19 06:00N 37°57' E 023°36'0 0.8
2017-Sep-19 05:30N 37°56' E 023°36'1 2.8
2017-Sep-19 05:01N 37°56' E 023°38'1 2.3
2017-Sep-19 04:30N 37°56' E 023°36'1 0.9
2017-Sep-19 03:54N 37°55' E 023°37'1 3.8
2017-Sep-19 03:30N 37°57' E 023°36'1 2.0
2017-Sep-19 03:00N 37°56' E 023°38'0 0.0
2017-Sep-19 02:30N 37°56' E 023°38'0 0.0
2017-Sep-19 02:00N 37°56' E 023°38'0 0.4
2017-Sep-19 01:30N 37°56' E 023°37'0 0.4
2017-Sep-19 00:59N 37°56' E 023°38'0 0.0
2017-Sep-19 00:29N 37°56' E 023°38'0 0.0
2017-Sep-18 23:56N 37°56' E 023°38'0 0.0
2017-Sep-18 23:29N 37°56' E 023°38'0 0.0
2017-Sep-18 22:59N 37°56' E 023°38'0 0.0
2017-Sep-18 22:29N 37°56' E 023°38'0 0.0
2017-Sep-18 22:00N 37°56' E 023°38'0 0.0
2017-Sep-18 21:26N 37°56' E 023°38'0 0.7
2017-Sep-18 21:00N 37°56' E 023°37'0 0.5
2017-Sep-18 20:26N 37°56' E 023°38'2 3.7
2017-Sep-18 20:00N 37°57' E 023°36'2 3.1
2017-Sep-18 19:30N 37°56' E 023°38'0 0.1
2017-Sep-18 19:00N 37°56' E 023°38'0 0.0
2017-Sep-18 18:31N 37°56' E 023°38'0 0.0
2017-Sep-18 18:00N 37°56' E 023°38'1 2.6
2017-Sep-18 17:26N 37°57' E 023°36'1 3.2
2017-Sep-18 16:58N 37°56' E 023°38'0 0.2
2017-Sep-18 16:30N 37°56' E 023°38'1 1.3
2017-Sep-18 16:00N 37°56' E 023°37'1 2.0
2017-Sep-18 15:23N 37°57' E 023°36'0 0.2
2017-Sep-18 14:54N 37°57' E 023°36'1 1.9
2017-Sep-18 14:29N 37°56' E 023°37'1 1.4
2017-Sep-18 13:58N 37°56' E 023°38'2 3.0
2017-Sep-18 13:28N 37°57' E 023°36'2 3.0
2017-Sep-18 12:58N 37°56' E 023°38'0 0.4
2017-Sep-18 12:30N 37°56' E 023°37'1 2.7
2017-Sep-18 11:58N 37°57' E 023°36'1 1.3
2017-Sep-18 11:28N 37°57' E 023°36'1 1.7
2017-Sep-18 10:56N 37°56' E 023°36'1 1.4
2017-Sep-18 10:30N 37°56' E 023°36'1 0.9
2017-Sep-18 09:53N 37°56' E 023°36'1 3.3
2017-Sep-18 09:30N 37°56' E 023°38'0 0.0
2017-Sep-18 08:58N 37°56' E 023°38'1 2.3
2017-Sep-18 08:30N 37°57' E 023°36'1 2.2
2017-Sep-18 08:00N 37°56' E 023°38'0 0.2
2017-Sep-18 07:30N 37°56' E 023°37'2 1.8
2017-Sep-18 06:33N 37°57' E 023°35'113.1
2017-Sep-18 06:29N 37°57' E 023°36'0 1.0
2017-Sep-18 06:00N 37°57' E 023°36'0 0.6
2017-Sep-18 05:29N 37°57' E 023°36'2 3.3
2017-Sep-18 05:00N 37°56' E 023°38'2 3.2
2017-Sep-18 04:29N 37°55' E 023°36'0 0.1
2017-Sep-18 03:42N 37°55' E 023°36'2 5.1
2017-Sep-18 03:22N 37°56' E 023°38'0 0.9
2017-Sep-18 03:00N 37°56' E 023°37'0 0.6
2017-Sep-18 02:29N 37°56' E 023°38'0 0.0
2017-Sep-18 01:59N 37°56' E 023°38'0 0.0
2017-Sep-18 01:29N 37°56' E 023°38'0 0.0
2017-Sep-18 00:59N 37°56' E 023°38'0 0.0
2017-Sep-18 00:29N 37°56' E 023°38'0 0.0
2017-Sep-17 23:53N 37°56' E 023°38'0 0.0
2017-Sep-17 23:29N 37°56' E 023°38'0 0.0
2017-Sep-17 22:59N 37°56' E 023°38'0 0.0
2017-Sep-17 22:29N 37°56' E 023°38'2 3.4
2017-Sep-17 22:00N 37°57' E 023°36'0 0.7
2017-Sep-17 21:30N 37°57' E 023°35'0 0.5
2017-Sep-17 21:00N 37°57' E 023°35'1 1.0
2017-Sep-17 20:29N 37°57' E 023°35'1 2.2
2017-Sep-17 20:00N 37°57' E 023°36'1 1.5
2017-Sep-17 19:24N 37°57' E 023°35'0 1.2
2017-Sep-17 18:59N 37°57' E 023°36'2 3.4
2017-Sep-17 18:30N 37°56' E 023°37'0 0.7
2017-Sep-17 18:00N 37°56' E 023°37'0 0.9
2017-Sep-17 17:30N 37°56' E 023°38'0 0.0
2017-Sep-17 17:00N 37°56' E 023°38'2 3.4
2017-Sep-17 16:21N 37°57' E 023°35'1 1.6
2017-Sep-17 16:00N 37°57' E 023°36'1 1.4
2017-Sep-17 15:30N 37°57' E 023°36'1 1.6
2017-Sep-17 14:53N 37°56' E 023°38'0 0.0
2017-Sep-17 14:28N 37°56' E 023°38'1 2.2
2017-Sep-17 14:00N 37°56' E 023°36'2 2.9
2017-Sep-17 13:24N 37°57' E 023°35'2 5.1
2017-Sep-17 12:59N 37°56' E 023°38'1 2.7
2017-Sep-17 12:30N 37°56' E 023°36'1 2.0
2017-Sep-17 11:47N 37°57' E 023°36'0 0.8
2017-Sep-17 11:24N 37°57' E 023°36'1 3.8
2017-Sep-17 11:00N 37°55' E 023°37'1 2.3
2017-Sep-17 10:28N 37°56' E 023°38'0 0.0
2017-Sep-17 10:00N 37°56' E 023°38'0 0.0
2017-Sep-17 09:25N 37°56' E 023°38'1 3.4
2017-Sep-17 08:59N 37°57' E 023°36'0 0.6
2017-Sep-17 08:24N 37°57' E 023°36'1 2.8
2017-Sep-17 07:56N 37°56' E 023°38'0 0.0
2017-Sep-17 07:25N 37°56' E 023°38'0 0.0
2017-Sep-17 07:00N 37°56' E 023°38'0 0.8
2017-Sep-17 06:30N 37°56' E 023°37'1 2.2
2017-Sep-17 05:53N 37°57' E 023°36'1 1.4
2017-Sep-17 05:28N 37°57' E 023°36'1 2.0
2017-Sep-17 05:00N 37°57' E 023°35'2 4.5
2017-Sep-17 04:30N 37°56' E 023°37'1 3.0
2017-Sep-17 04:00N 37°55' E 023°36'1 2.6
2017-Sep-17 03:30N 37°57' E 023°36'1 1.9
2017-Sep-17 02:58N 37°56' E 023°38'0 0.0
2017-Sep-17 02:28N 37°56' E 023°38'0 0.0
2017-Sep-17 01:58N 37°56' E 023°38'0 0.0
2017-Sep-17 01:28N 37°56' E 023°38'0 0.0
2017-Sep-17 00:58N 37°56' E 023°38'0 0.0
2017-Sep-17 00:28N 37°56' E 023°38'2 3.8
2017-Sep-17 00:00N 37°57' E 023°36'0 0.7
2017-Sep-16 23:30N 37°57' E 023°35'2 4.3
2017-Sep-16 23:00N 37°56' E 023°38'0 0.0
2017-Sep-16 22:30N 37°56' E 023°38'0 0.0
2017-Sep-16 22:00N 37°56' E 023°38'2 3.9
2017-Sep-16 21:30N 37°57' E 023°35'2 4.0
2017-Sep-16 21:00N 37°56' E 023°38'0 0.3
2017-Sep-16 20:30N 37°56' E 023°37'0 0.3
2017-Sep-16 20:00N 37°56' E 023°38'1 1.6
2017-Sep-16 19:31N 37°57' E 023°37'0 0.7
2017-Sep-16 18:58N 37°56' E 023°37'1 2.2
2017-Sep-16 18:29N 37°57' E 023°36'2 3.5
2017-Sep-16 18:00N 37°56' E 023°37'2 3.8
2017-Sep-16 17:30N 37°57' E 023°36'0 0.4
2017-Sep-16 16:59N 37°57' E 023°35'1 1.3
2017-Sep-16 16:26N 37°57' E 023°36'1 3.1
2017-Sep-16 16:00N 37°56' E 023°38'1 1.5
2017-Sep-16 15:29N 37°57' E 023°38'1 2.1
2017-Sep-16 15:00N 37°56' E 023°37'0 0.4
2017-Sep-16 14:30N 37°56' E 023°38'0 0.0
2017-Sep-16 13:52N 37°56' E 023°38'0 0.0
2017-Sep-16 13:30N 37°56' E 023°38'1 1.0
2017-Sep-16 13:00N 37°56' E 023°37'1 2.5
2017-Sep-16 12:24N 37°57' E 023°35'2 4.2
2017-Sep-16 11:55N 37°55' E 023°37'1 2.3
2017-Sep-16 11:30N 37°56' E 023°37'2 2.6
2017-Sep-16 10:46N 37°57' E 023°35'2 7.5
2017-Sep-16 10:30N 37°56' E 023°38'2 1.7
2017-Sep-16 09:36N 37°57' E 023°36'111.1
2017-Sep-16 09:30N 37°56' E 023°37'0 0.8
2017-Sep-16 09:00N 37°56' E 023°37'2 2.9
2017-Sep-16 08:16N 37°57' E 023°35'2 9.5
2017-Sep-16 08:00N 37°56' E 023°38'2 2.5
2017-Sep-16 07:11N 37°57' E 023°35'2 9.1
2017-Sep-16 06:58N 37°56' E 023°38'0 0.0
2017-Sep-16 06:28N 37°56' E 023°38'2 4.5
2017-Sep-16 06:00N 37°55' E 023°36'2 3.8
2017-Sep-16 05:22N 37°57' E 023°36'2 5.3
2017-Sep-16 04:58N 37°55' E 023°36'1 1.5
2017-Sep-16 04:30N 37°56' E 023°36'1 1.6
2017-Sep-16 04:00N 37°56' E 023°37'1 1.5
2017-Sep-16 03:30N 37°57' E 023°36'1 2.5
2017-Sep-16 03:00N 37°56' E 023°37'0 0.8
2017-Sep-16 02:31N 37°56' E 023°38'0 0.0
2017-Sep-16 02:01N 37°56' E 023°38'0 0.7
2017-Sep-16 01:30N 37°56' E 023°37'0 0.7
2017-Sep-16 00:59N 37°56' E 023°38'0 0.3
2017-Sep-16 00:30N 37°56' E 023°38'2 3.0
2017-Sep-16 00:00N 37°55' E 023°37'1 2.7
2017-Sep-15 23:28N 37°56' E 023°38'0 0.0
2017-Sep-15 22:55N 37°56' E 023°38'0 0.0
2017-Sep-15 22:28N 37°56' E 023°38'0 0.0
2017-Sep-15 21:58N 37°56' E 023°38'0 0.0
2017-Sep-15 21:28N 37°56' E 023°38'1 1.4
2017-Sep-15 21:00N 37°56' E 023°37'1 1.9
2017-Sep-15 20:28N 37°57' E 023°36'1 1.8
2017-Sep-15 20:00N 37°57' E 023°37'0 0.2
2017-Sep-15 19:30N 37°57' E 023°37'1 1.0
2017-Sep-15 18:58N 37°57' E 023°36'0 0.5
2017-Sep-15 18:23N 37°57' E 023°36'1 1.6
2017-Sep-15 17:57N 37°56' E 023°36'1 1.5
2017-Sep-15 17:29N 37°56' E 023°36'1 1.4
2017-Sep-15 16:39N 37°57' E 023°36'1 6.9
2017-Sep-15 16:28N 37°56' E 023°36'2 3.0
2017-Sep-15 15:56N 37°56' E 023°38'2 3.4
2017-Sep-15 15:29N 37°55' E 023°36'2 2.8
2017-Sep-15 14:57N 37°56' E 023°38'1 1.7
2017-Sep-15 14:28N 37°57' E 023°37'1 1.8
2017-Sep-15 14:00N 37°56' E 023°38'0 0.0
2017-Sep-15 13:30N 37°56' E 023°38'2 3.7
2017-Sep-15 13:00N 37°57' E 023°35'1 2.2
2017-Sep-15 12:29N 37°56' E 023°36'1 1.5
2017-Sep-15 11:59N 37°57' E 023°36'1 2.9
2017-Sep-15 11:30N 37°56' E 023°38'2 2.4
2017-Sep-15 10:48N 37°57' E 023°36'2 4.9
2017-Sep-15 10:28N 37°56' E 023°38'1 2.3
2017-Sep-15 10:00N 37°57' E 023°36'1 2.0
2017-Sep-15 09:30N 37°56' E 023°38'1 1.2
2017-Sep-15 09:00N 37°56' E 023°37'1 1.7
2017-Sep-15 08:29N 37°56' E 023°36'1 2.7
2017-Sep-15 08:00N 37°56' E 023°38'0 0.0
2017-Sep-15 07:27N 37°56' E 023°38'2 2.1
2017-Sep-15 06:29N 37°57' E 023°35'0 0.9
2017-Sep-15 06:00N 37°57' E 023°36'2 3.8
2017-Sep-15 05:30N 37°55' E 023°36'1 2.1
2017-Sep-15 04:59N 37°56' E 023°36'1 2.3
2017-Sep-15 04:30N 37°57' E 023°36'2 4.8
2017-Sep-15 03:59N 37°55' E 023°35'2 4.0
2017-Sep-15 03:30N 37°57' E 023°36'1 2.5
2017-Sep-15 03:00N 37°56' E 023°37'1 2.0
2017-Sep-15 02:30N 37°56' E 023°38'0 0.0
2017-Sep-15 02:00N 37°56' E 023°38'0 0.0
2017-Sep-15 01:27N 37°56' E 023°38'0 0.0
2017-Sep-15 01:00N 37°56' E 023°38'0 0.0
2017-Sep-15 00:27N 37°56' E 023°38'0 0.0
2017-Sep-14 23:48N 37°56' E 023°38'0 0.0
2017-Sep-14 23:24N 37°56' E 023°38'0 0.0
2017-Sep-14 22:57N 37°56' E 023°38'0 0.0
2017-Sep-14 22:30N 37°56' E 023°38'0 0.0
2017-Sep-14 21:57N 37°56' E 023°38'0 0.0
2017-Sep-14 21:30N 37°56' E 023°38'2 2.2
2017-Sep-14 20:37N 37°57' E 023°35'212.9
2017-Sep-14 20:30N 37°56' E 023°37'0 0.9
2017-Sep-14 19:59N 37°56' E 023°38'2 3.3
2017-Sep-14 19:30N 37°56' E 023°36'1 1.4
2017-Sep-14 19:00N 37°56' E 023°36'0 0.9
2017-Sep-14 18:29N 37°57' E 023°37'1 1.7
2017-Sep-14 18:00N 37°56' E 023°38'0 0.6
2017-Sep-14 17:30N 37°57' E 023°38'1 1.7
2017-Sep-14 17:00N 37°56' E 023°37'2 2.6
2017-Sep-14 16:25N 37°57' E 023°35'1 2.1
2017-Sep-14 16:00N 37°56' E 023°36'1 0.7
2017-Sep-14 14:42N 37°56' E 023°35'2 9.3
2017-Sep-14 14:30N 37°56' E 023°38'1 2.0
2017-Sep-14 13:59N 37°56' E 023°36'1 2.1
2017-Sep-14 13:29N 37°56' E 023°38'0 0.0
2017-Sep-14 12:59N 37°56' E 023°38'1 2.3
2017-Sep-14 12:29N 37°57' E 023°36'1 1.5
2017-Sep-14 11:59N 37°56' E 023°37'1 1.4
2017-Sep-14 11:29N 37°56' E 023°38'0 0.5
2017-Sep-14 11:00N 37°56' E 023°37'0 0.5
2017-Sep-14 10:30N 37°56' E 023°38'1 2.5
2017-Sep-14 10:00N 37°57' E 023°36'1 1.5
2017-Sep-14 09:29N 37°56' E 023°36'1 2.9
2017-Sep-14 08:58N 37°57' E 023°35'2 4.5
2017-Sep-14 08:30N 37°56' E 023°38'2 3.1
2017-Sep-14 07:54N 37°55' E 023°36'2 2.2
2017-Sep-14 06:46N 37°57' E 023°35'2 7.0
2017-Sep-14 06:30N 37°56' E 023°37'1 2.0
2017-Sep-14 05:56N 37°57' E 023°36'1 2.9
2017-Sep-14 05:30N 37°56' E 023°37'2 0.1
2017-Sep-12 21:54N 37°57' E 023°36'0 0.1
2017-Sep-12 20:53N 37°57' E 023°36'3 7.1
2017-Sep-12 20:30N 37°55' E 023°37'3 4.6
2017-Sep-12 19:56N 37°57' E 023°36'2 3.2
2017-Sep-12 19:24N 37°56' E 023°38'0 0.0
2017-Sep-12 18:57N 37°56' E 023°38'0 0.0
2017-Sep-12 18:30N 37°56' E 023°38'2 3.5
2017-Sep-12 17:59N 37°57' E 023°35'0 0.3
2017-Sep-12 17:25N 37°57' E 023°36'2 4.0
2017-Sep-12 17:00N 37°55' E 023°36'2 2.1
2017-Sep-12 16:11N 37°57' E 023°36'0 0.5
2017-Sep-12 15:35N 37°57' E 023°36'112.9
2017-Sep-12 15:30N 37°56' E 023°37'1 0.9
2017-Sep-12 14:57N 37°56' E 023°38'2 5.3
2017-Sep-12 14:29N 37°57' E 023°35'2 5.2
2017-Sep-12 14:00N 37°56' E 023°38'0 0.5
2017-Sep-12 13:30N 37°56' E 023°37'0 0.4
2017-Sep-12 12:55N 37°56' E 023°38'0 0.0
2017-Sep-12 12:28N 37°56' E 023°38'0 0.0
2017-Sep-12 12:00N 37°56' E 023°38'0 0.0
2017-Sep-12 11:29N 37°56' E 023°38'0 0.0
2017-Sep-12 11:00N 37°56' E 023°38'0 0.0
2017-Sep-12 10:30N 37°56' E 023°38'1 2.0
2017-Sep-12 09:50N 37°57' E 023°36'1 3.6
2017-Sep-12 09:28N 37°56' E 023°38'1 1.8
2017-Sep-12 08:58N 37°55' E 023°37'1 1.5
2017-Sep-12 08:27N 37°56' E 023°37'0 0.5
2017-Sep-12 07:55N 37°56' E 023°38'0 0.0
2017-Sep-12 07:29N 37°56' E 023°38'0 0.0
2017-Sep-12 06:59N 37°56' E 023°38'2 3.5
2017-Sep-12 06:30N 37°57' E 023°36'1 1.4
2017-Sep-12 06:00N 37°57' E 023°36'2 3.6
2017-Sep-12 05:30N 37°55' E 023°36'2 3.9
2017-Sep-12 04:59N 37°57' E 023°36'3 6.0
2017-Sep-12 04:24N 37°54' E 023°37'1 1.3
2017-Sep-12 03:45N 37°54' E 023°37'2 6.9
2017-Sep-12 03:29N 37°56' E 023°37'0 0.7
2017-Sep-12 02:57N 37°56' E 023°38'0 0.0
2017-Sep-12 02:30N 37°56' E 023°38'0 0.0
2017-Sep-12 01:57N 37°56' E 023°38'0 0.0
2017-Sep-12 01:30N 37°56' E 023°38'0 0.0
2017-Sep-12 01:00N 37°56' E 023°38'0 0.0
2017-Sep-12 00:30N 37°56' E 023°38'1 1.5
2017-Sep-12 00:00N 37°56' E 023°37'1 0.7
2017-Sep-11 22:59N 37°57' E 023°36'1 1.0
2017-Sep-11 22:25N 37°57' E 023°36'0 0.6
2017-Sep-11 21:56N 37°57' E 023°36'2 3.5
2017-Sep-11 21:30N 37°56' E 023°37'1 1.7
2017-Sep-11 20:56N 37°57' E 023°38'0 0.6
2017-Sep-11 20:27N 37°56' E 023°38'0 0.0
2017-Sep-11 19:51N 37°56' E 023°38'0 0.0
2017-Sep-11 19:27N 37°56' E 023°38'0 0.1
2017-Sep-11 19:00N 37°56' E 023°38'2 3.3
2017-Sep-11 18:29N 37°57' E 023°35'1 2.2
2017-Sep-11 18:00N 37°57' E 023°37'1 1.5
2017-Sep-11 17:29N 37°56' E 023°38'0 0.0
2017-Sep-11 16:53N 37°56' E 023°38'0 0.0
2017-Sep-11 16:29N 37°56' E 023°38'1 2.8
2017-Sep-11 15:58N 37°56' E 023°36'1 1.0
2017-Sep-11 14:40N 37°57' E 023°35'1 6.9
2017-Sep-11 14:30N 37°57' E 023°36'1 0.7
2017-Sep-11 13:21N 37°57' E 023°35'2 5.5
2017-Sep-11 12:57N 37°56' E 023°38'0 0.0
2017-Sep-11 12:29N 37°56' E 023°38'0 0.0
2017-Sep-11 11:47N 37°56' E 023°38'0 0.0
2017-Sep-11 11:29N 37°56' E 023°38'0 0.0
2017-Sep-11 10:59N 37°56' E 023°38'0 0.0
2017-Sep-11 10:29N 37°56' E 023°38'0 0.0
2017-Sep-11 09:59N 37°56' E 023°38'0 0.0
2017-Sep-11 09:20N 37°56' E 023°38'0 0.0
2017-Sep-11 08:56N 37°56' E 023°38'  
Track history (hours):
 
Tides and Currents Weather Stations Pressure Air Temp Water Temp Dewpoint Dewpoint Depression Visibility Wind Speed Wind Dir Waves Ship Positions

Pilot Boat 53

Last reported at 2017-Sep-21 08:29 UTC. Time now 2017-Sep-21 09:01 UTC.
Position N 37°56' E 023°38'.

Length 14 m.

MMSI: 237710200.

Date/timePositionNaut miles runAvg speedWind from/ knotsBaromVisibWave heightAir tempDewpointWater temp
2017-Sep-21 08:29N 37°56' E 023°38'0 0.4
2017-Sep-21 07:59N 37°56' E 023°37'2 2.8
2017-Sep-21 07:24N 37°57' E 023°35'2 4.3
2017-Sep-21 07:00N 37°56' E 023°37'1 1.3
2017-Sep-21 06:30N 37°57' E 023°37'2 3.3
2017-Sep-21 05:57N 37°55' E 023°37'2 4.0
2017-Sep-21 05:22N 37°57' E 023°36'1 3.4
2017-Sep-21 05:00N 37°56' E 023°36'0 0.9
2017-Sep-21 04:30N 37°56' E 023°37'1 2.3
2017-Sep-21 03:59N 37°55' E 023°36'2 3.5
2017-Sep-21 03:29N 37°57' E 023°36'1 1.9
2017-Sep-21 02:59N 37°56' E 023°38'0 0.0
2017-Sep-21 02:26N 37°56' E 023°38'0 0.0
2017-Sep-21 01:59N 37°56' E 023°38'2 3.9
2017-Sep-21 01:30N 37°57' E 023°35'1 1.3
2017-Sep-21 01:00N 37°57' E 023°36'2 4.3
2017-Sep-21 00:28N 37°55' E 023°38'2 4.5
2017-Sep-21 00:00N 37°56' E 023°36'1 2.7
2017-Sep-20 23:30N 37°56' E 023°38'2 3.4
2017-Sep-20 22:58N 37°57' E 023°35'0 0.4
2017-Sep-20 22:29N 37°57' E 023°35'2 4.2
2017-Sep-20 22:00N 37°56' E 023°38'0 0.0
2017-Sep-20 21:30N 37°56' E 023°38'0 0.0
2017-Sep-20 21:00N 37°56' E 023°38'0 0.0
2017-Sep-20 20:21N 37°56' E 023°38'0 0.0
2017-Sep-20 20:00N 37°56' E 023°38'0 0.1
2017-Sep-20 19:30N 37°56' E 023°38'0 0.1
2017-Sep-20 18:58N 37°56' E 023°38'1 2.1
2017-Sep-20 18:30N 37°56' E 023°37'2 2.0
2017-Sep-20 17:45N 37°57' E 023°36'2 5.7
2017-Sep-20 17:29N 37°56' E 023°38'0 0.0
2017-Sep-20 16:57N 37°56' E 023°38'0 0.0
2017-Sep-20 16:27N 37°56' E 023°38'0 0.3
2017-Sep-20 16:01N 37°56' E 023°37'1 2.1
2017-Sep-20 15:30N 37°57' E 023°36'1 2.2
2017-Sep-20 15:00N 37°56' E 023°37'1 0.6
2017-Sep-20 14:00N 37°56' E 023°38'1 3.0
2017-Sep-20 13:30N 37°55' E 023°36'2 4.1
2017-Sep-20 13:00N 37°57' E 023°35'1 1.4
2017-Sep-20 12:30N 37°57' E 023°36'2 4.2
2017-Sep-20 12:00N 37°55' E 023°36'2 4.0
2017-Sep-20 11:30N 37°56' E 023°38'2 3.7
2017-Sep-20 10:58N 37°57' E 023°35'0 0.9
2017-Sep-20 10:28N 37°57' E 023°36'2 3.6
2017-Sep-20 09:57N 37°55' E 023°37'1 2.3
2017-Sep-20 09:28N 37°56' E 023°38'1 2.6
2017-Sep-20 08:59N 37°57' E 023°36'1 2.6
2017-Sep-20 08:30N 37°56' E 023°38'1 2.5
2017-Sep-20 07:59N 37°56' E 023°36'0 0.6
2017-Sep-20 07:14N 37°57' E 023°36'2 7.1
2017-Sep-20 07:00N 37°56' E 023°38'2 3.6
2017-Sep-20 06:29N 37°57' E 023°35'2 3.7
2017-Sep-20 06:00N 37°56' E 023°37'1 1.6
2017-Sep-20 05:30N 37°56' E 023°37'1 1.0
2017-Sep-20 05:00N 37°56' E 023°37'1 1.2
2017-Sep-20 04:29N 37°56' E 023°38'1 2.4
2017-Sep-20 03:54N 37°56' E 023°36'1 2.7
2017-Sep-20 03:27N 37°57' E 023°36'1 3.3
2017-Sep-20 03:00N 37°56' E 023°38'0 0.0
2017-Sep-20 02:30N 37°56' E 023°38'0 0.0
2017-Sep-20 01:57N 37°56' E 023°38'0 0.0
2017-Sep-20 01:30N 37°56' E 023°38'0 0.0
2017-Sep-20 01:00N 37°56' E 023°38'0 0.0
2017-Sep-20 00:30N 37°56' E 023°38'0 0.0
2017-Sep-20 00:00N 37°56' E 023°38'0 0.0
2017-Sep-19 23:30N 37°56' E 023°38'0 0.0
2017-Sep-19 23:00N 37°56' E 023°38'0 0.4
2017-Sep-19 22:30N 37°56' E 023°37'1 1.2
2017-Sep-19 21:22N 37°57' E 023°36'0 0.8
2017-Sep-19 20:59N 37°57' E 023°35'0 0.2
2017-Sep-19 20:29N 37°57' E 023°35'0 0.7
2017-Sep-19 20:00N 37°57' E 023°36'0 0.3
2017-Sep-19 19:28N 37°57' E 023°36'1 3.2
2017-Sep-19 19:00N 37°56' E 023°38'1 3.0
2017-Sep-19 18:30N 37°56' E 023°36'1 1.1
2017-Sep-19 17:43N 37°57' E 023°37'1 3.1
2017-Sep-19 17:31N 37°56' E 023°38'1 1.7
2017-Sep-19 17:00N 37°56' E 023°37'1 1.6
2017-Sep-19 16:30N 37°56' E 023°37'1 2.4
2017-Sep-19 15:57N 37°57' E 023°36'1 1.9
2017-Sep-19 15:30N 37°56' E 023°37'0 0.8
2017-Sep-19 15:00N 37°56' E 023°36'1 1.2
2017-Sep-19 14:27N 37°57' E 023°36'2 3.3
2017-Sep-19 13:59N 37°56' E 023°38'0 0.0
2017-Sep-19 13:28N 37°56' E 023°38'0 0.7
2017-Sep-19 13:00N 37°56' E 023°37'0 0.6
2017-Sep-19 12:26N 37°56' E 023°38'1 2.4
2017-Sep-19 12:00N 37°56' E 023°36'1 1.7
2017-Sep-19 11:29N 37°57' E 023°36'1 3.0
2017-Sep-19 11:00N 37°56' E 023°38'0 0.1
2017-Sep-19 10:30N 37°56' E 023°38'2 2.6
2017-Sep-19 09:43N 37°57' E 023°35'2 9.4
2017-Sep-19 09:30N 37°56' E 023°38'0 0.0
2017-Sep-19 08:58N 37°56' E 023°38'1 3.0
2017-Sep-19 08:29N 37°56' E 023°36'1 2.7
2017-Sep-19 07:59N 37°57' E 023°35'2 3.2
2017-Sep-19 07:25N 37°56' E 023°38'2 4.6
2017-Sep-19 06:57N 37°55' E 023°35'2 2.7
2017-Sep-19 06:16N 37°57' E 023°35'1 3.3
2017-Sep-19 06:00N 37°57' E 023°36'0 0.8
2017-Sep-19 05:30N 37°56' E 023°36'1 2.8
2017-Sep-19 05:01N 37°56' E 023°38'1 2.3
2017-Sep-19 04:30N 37°56' E 023°36'1 0.9
2017-Sep-19 03:54N 37°55' E 023°37'1 3.8
2017-Sep-19 03:30N 37°57' E 023°36'1 2.0
2017-Sep-19 03:00N 37°56' E 023°38'0 0.0
2017-Sep-19 02:30N 37°56' E 023°38'0 0.0
2017-Sep-19 02:00N 37°56' E 023°38'0 0.4
2017-Sep-19 01:30N 37°56' E 023°37'0 0.4
2017-Sep-19 00:59N 37°56' E 023°38'0 0.0
2017-Sep-19 00:29N 37°56' E 023°38'0 0.0
2017-Sep-18 23:56N 37°56' E 023°38'0 0.0
2017-Sep-18 23:29N 37°56' E 023°38'0 0.0
2017-Sep-18 22:59N 37°56' E 023°38'0 0.0
2017-Sep-18 22:29N 37°56' E 023°38'0 0.0
2017-Sep-18 22:00N 37°56' E 023°38'0 0.0
2017-Sep-18 21:26N 37°56' E 023°38'0 0.7
2017-Sep-18 21:00N 37°56' E 023°37'0 0.5
2017-Sep-18 20:26N 37°56' E 023°38'2 3.7
2017-Sep-18 20:00N 37°57' E 023°36'2 3.1
2017-Sep-18 19:30N 37°56' E 023°38'0 0.1
2017-Sep-18 19:00N 37°56' E 023°38'0 0.0
2017-Sep-18 18:31N 37°56' E 023°38'0 0.0
2017-Sep-18 18:00N 37°56' E 023°38'1 2.6
2017-Sep-18 17:26N 37°57' E 023°36'1 3.2
2017-Sep-18 16:58N 37°56' E 023°38'0 0.2
2017-Sep-18 16:30N 37°56' E 023°38'1 1.3
2017-Sep-18 16:00N 37°56' E 023°37'1 2.0
2017-Sep-18 15:23N 37°57' E 023°36'0 0.2
2017-Sep-18 14:54N 37°57' E 023°36'1 1.9
2017-Sep-18 14:29N 37°56' E 023°37'1 1.4
2017-Sep-18 13:58N 37°56' E 023°38'2 3.0
2017-Sep-18 13:28N 37°57' E 023°36'2 3.0
2017-Sep-18 12:58N 37°56' E 023°38'0 0.4
2017-Sep-18 12:30N 37°56' E 023°37'1 2.7
2017-Sep-18 11:58N 37°57' E 023°36'1 1.3
2017-Sep-18 11:28N 37°57' E 023°36'1 1.7
2017-Sep-18 10:56N 37°56' E 023°36'1 1.4
2017-Sep-18 10:30N 37°56' E 023°36'1 0.9
2017-Sep-18 09:53N 37°56' E 023°36'1 3.3
2017-Sep-18 09:30N 37°56' E 023°38'0 0.0
2017-Sep-18 08:58N 37°56' E 023°38'1 2.3
2017-Sep-18 08:30N 37°57' E 023°36'1 2.2
2017-Sep-18 08:00N 37°56' E 023°38'0 0.2
2017-Sep-18 07:30N 37°56' E 023°37'2 1.8
2017-Sep-18 06:33N 37°57' E 023°35'113.1
2017-Sep-18 06:29N 37°57' E 023°36'0 1.0
2017-Sep-18 06:00N 37°57' E 023°36'0 0.6
2017-Sep-18 05:29N 37°57' E 023°36'2 3.3
2017-Sep-18 05:00N 37°56' E 023°38'2 3.2
2017-Sep-18 04:29N 37°55' E 023°36'0 0.1
2017-Sep-18 03:42N 37°55' E 023°36'2 5.1
2017-Sep-18 03:22N 37°56' E 023°38'0 0.9
2017-Sep-18 03:00N 37°56' E 023°37'0 0.6
2017-Sep-18 02:29N 37°56' E 023°38'0 0.0
2017-Sep-18 01:59N 37°56' E 023°38'0 0.0
2017-Sep-18 01:29N 37°56' E 023°38'0 0.0
2017-Sep-18 00:59N 37°56' E 023°38'0 0.0
2017-Sep-18 00:29N 37°56' E 023°38'0 0.0
2017-Sep-17 23:53N 37°56' E 023°38'0 0.0
2017-Sep-17 23:29N 37°56' E 023°38'0 0.0
2017-Sep-17 22:59N 37°56' E 023°38'0 0.0
2017-Sep-17 22:29N 37°56' E 023°38'2 3.4
2017-Sep-17 22:00N 37°57' E 023°36'0 0.7
2017-Sep-17 21:30N 37°57' E 023°35'0 0.5
2017-Sep-17 21:00N 37°57' E 023°35'1 1.0
2017-Sep-17 20:29N 37°57' E 023°35'1 2.2
2017-Sep-17 20:00N 37°57' E 023°36'1 1.5
2017-Sep-17 19:24N 37°57' E 023°35'0 1.2
2017-Sep-17 18:59N 37°57' E 023°36'2 3.4
2017-Sep-17 18:30N 37°56' E 023°37'0 0.7
2017-Sep-17 18:00N 37°56' E 023°37'0 0.9
2017-Sep-17 17:30N 37°56' E 023°38'0 0.0
2017-Sep-17 17:00N 37°56' E 023°38'2 3.4
2017-Sep-17 16:21N 37°57' E 023°35'1 1.6
2017-Sep-17 16:00N 37°57' E 023°36'1 1.4
2017-Sep-17 15:30N 37°57' E 023°36'1 1.6
2017-Sep-17 14:53N 37°56' E 023°38'0 0.0
2017-Sep-17 14:28N 37°56' E 023°38'1 2.2
2017-Sep-17 14:00N 37°56' E 023°36'2 2.9
2017-Sep-17 13:24N 37°57' E 023°35'2 5.1
2017-Sep-17 12:59N 37°56' E 023°38'1 2.7
2017-Sep-17 12:30N 37°56' E 023°36'1 2.0
2017-Sep-17 11:47N 37°57' E 023°36'0 0.8
2017-Sep-17 11:24N 37°57' E 023°36'1 3.8
2017-Sep-17 11:00N 37°55' E 023°37'1 2.3
2017-Sep-17 10:28N 37°56' E 023°38'0 0.0
2017-Sep-17 10:00N 37°56' E 023°38'0 0.0
2017-Sep-17 09:25N 37°56' E 023°38'1 3.4
2017-Sep-17 08:59N 37°57' E 023°36'0 0.6
2017-Sep-17 08:24N 37°57' E 023°36'1 2.8
2017-Sep-17 07:56N 37°56' E 023°38'0 0.0
2017-Sep-17 07:25N 37°56' E 023°38'0 0.0
2017-Sep-17 07:00N 37°56' E 023°38'0 0.8
2017-Sep-17 06:30N 37°56' E 023°37'1 2.2
2017-Sep-17 05:53N 37°57' E 023°36'1 1.4
2017-Sep-17 05:28N 37°57' E 023°36'1 2.0
2017-Sep-17 05:00N 37°57' E 023°35'2 4.5
2017-Sep-17 04:30N 37°56' E 023°37'1 3.0
2017-Sep-17 04:00N 37°55' E 023°36'1 2.6
2017-Sep-17 03:30N 37°57' E 023°36'1 1.9
2017-Sep-17 02:58N 37°56' E 023°38'0 0.0
2017-Sep-17 02:28N 37°56' E 023°38'0 0.0
2017-Sep-17 01:58N 37°56' E 023°38'0 0.0
2017-Sep-17 01:28N 37°56' E 023°38'0 0.0
2017-Sep-17 00:58N 37°56' E 023°38'0 0.0
2017-Sep-17 00:28N 37°56' E 023°38'2 3.8
2017-Sep-17 00:00N 37°57' E 023°36'0 0.7
2017-Sep-16 23:30N 37°57' E 023°35'2 4.3
2017-Sep-16 23:00N 37°56' E 023°38'0 0.0
2017-Sep-16 22:30N 37°56' E 023°38'0 0.0
2017-Sep-16 22:00N 37°56' E 023°38'2 3.9
2017-Sep-16 21:30N 37°57' E 023°35'2 4.0
2017-Sep-16 21:00N 37°56' E 023°38'0 0.3
2017-Sep-16 20:30N 37°56' E 023°37'0 0.3
2017-Sep-16 20:00N 37°56' E 023°38'1 1.6
2017-Sep-16 19:31N 37°57' E 023°37'0 0.7
2017-Sep-16 18:58N 37°56' E 023°37'1 2.2
2017-Sep-16 18:29N 37°57' E 023°36'2 3.5
2017-Sep-16 18:00N 37°56' E 023°37'2 3.8
2017-Sep-16 17:30N 37°57' E 023°36'0 0.4
2017-Sep-16 16:59N 37°57' E 023°35'1 1.3
2017-Sep-16 16:26N 37°57' E 023°36'1 3.1
2017-Sep-16 16:00N 37°56' E 023°38'1 1.5
2017-Sep-16 15:29N 37°57' E 023°38'1 2.1
2017-Sep-16 15:00N 37°56' E 023°37'0 0.4
2017-Sep-16 14:30N 37°56' E 023°38'0 0.0
2017-Sep-16 13:52N 37°56' E 023°38'0 0.0
2017-Sep-16 13:30N 37°56' E 023°38'1 1.0
2017-Sep-16 13:00N 37°56' E 023°37'1 2.5
2017-Sep-16 12:24N 37°57' E 023°35'2 4.2
2017-Sep-16 11:55N 37°55' E 023°37'1 2.3
2017-Sep-16 11:30N 37°56' E 023°37'2 2.6
2017-Sep-16 10:46N 37°57' E 023°35'2 7.5
2017-Sep-16 10:30N 37°56' E 023°38'2 1.7
2017-Sep-16 09:36N 37°57' E 023°36'111.1
2017-Sep-16 09:30N 37°56' E 023°37'0 0.8
2017-Sep-16 09:00N 37°56' E 023°37'2 2.9
2017-Sep-16 08:16N 37°57' E 023°35'2 9.5
2017-Sep-16 08:00N 37°56' E 023°38'2 2.5
2017-Sep-16 07:11N 37°57' E 023°35'2 9.1
2017-Sep-16 06:58N 37°56' E 023°38'0 0.0
2017-Sep-16 06:28N 37°56' E 023°38'2 4.5
2017-Sep-16 06:00N 37°55' E 023°36'2 3.8
2017-Sep-16 05:22N 37°57' E 023°36'2 5.3
2017-Sep-16 04:58N 37°55' E 023°36'1 1.5
2017-Sep-16 04:30N 37°56' E 023°36'1 1.6
2017-Sep-16 04:00N 37°56' E 023°37'1 1.5
2017-Sep-16 03:30N 37°57' E 023°36'1 2.5
2017-Sep-16 03:00N 37°56' E 023°37'0 0.8
2017-Sep-16 02:31N 37°56' E 023°38'0 0.0
2017-Sep-16 02:01N 37°56' E 023°38'0 0.7
2017-Sep-16 01:30N 37°56' E 023°37'0 0.7
2017-Sep-16 00:59N 37°56' E 023°38'0 0.3
2017-Sep-16 00:30N 37°56' E 023°38'2 3.0
2017-Sep-16 00:00N 37°55' E 023°37'1 2.7
2017-Sep-15 23:28N 37°56' E 023°38'0 0.0
2017-Sep-15 22:55N 37°56' E 023°38'0 0.0
2017-Sep-15 22:28N 37°56' E 023°38'0 0.0
2017-Sep-15 21:58N 37°56' E 023°38'0 0.0
2017-Sep-15 21:28N 37°56' E 023°38'1 1.4
2017-Sep-15 21:00N 37°56' E 023°37'1 1.9
2017-Sep-15 20:28N 37°57' E 023°36'1 1.8
2017-Sep-15 20:00N 37°57' E 023°37'0 0.2
2017-Sep-15 19:30N 37°57' E 023°37'1 1.0
2017-Sep-15 18:58N 37°57' E 023°36'0 0.5
2017-Sep-15 18:23N 37°57' E 023°36'1 1.6
2017-Sep-15 17:57N 37°56' E 023°36'1 1.5
2017-Sep-15 17:29N 37°56' E 023°36'1 1.4
2017-Sep-15 16:39N 37°57' E 023°36'1 6.9
2017-Sep-15 16:28N 37°56' E 023°36'2 3.0
2017-Sep-15 15:56N 37°56' E 023°38'2 3.4
2017-Sep-15 15:29N 37°55' E 023°36'2 2.8
2017-Sep-15 14:57N 37°56' E 023°38'1 1.7
2017-Sep-15 14:28N 37°57' E 023°37'1 1.8
2017-Sep-15 14:00N 37°56' E 023°38'0 0.0
2017-Sep-15 13:30N 37°56' E 023°38'2 3.7
2017-Sep-15 13:00N 37°57' E 023°35'1 2.2
2017-Sep-15 12:29N 37°56' E 023°36'1 1.5
2017-Sep-15 11:59N 37°57' E 023°36'1 2.9
2017-Sep-15 11:30N 37°56' E 023°38'2 2.4
2017-Sep-15 10:48N 37°57' E 023°36'2 4.9
2017-Sep-15 10:28N 37°56' E 023°38'1 2.3
2017-Sep-15 10:00N 37°57' E 023°36'1 2.0
2017-Sep-15 09:30N 37°56' E 023°38'1 1.2
2017-Sep-15 09:00N 37°56' E 023°37'1 1.7
2017-Sep-15 08:29N 37°56' E 023°36'1 2.7
2017-Sep-15 08:00N 37°56' E 023°38'0 0.0
2017-Sep-15 07:27N 37°56' E 023°38'2 2.1
2017-Sep-15 06:29N 37°57' E 023°35'0 0.9
2017-Sep-15 06:00N 37°57' E 023°36'2 3.8
2017-Sep-15 05:30N 37°55' E 023°36'1 2.1
2017-Sep-15 04:59N 37°56' E 023°36'1 2.3
2017-Sep-15 04:30N 37°57' E 023°36'2 4.8
2017-Sep-15 03:59N 37°55' E 023°35'2 4.0
2017-Sep-15 03:30N 37°57' E 023°36'1 2.5
2017-Sep-15 03:00N 37°56' E 023°37'1 2.0
2017-Sep-15 02:30N 37°56' E 023°38'0 0.0
2017-Sep-15 02:00N 37°56' E 023°38'0 0.0
2017-Sep-15 01:27N 37°56' E 023°38'0 0.0
2017-Sep-15 01:00N 37°56' E 023°38'0 0.0
2017-Sep-15 00:27N 37°56' E 023°38'0 0.0
2017-Sep-14 23:48N 37°56' E 023°38'0 0.0
2017-Sep-14 23:24N 37°56' E 023°38'0 0.0
2017-Sep-14 22:57N 37°56' E 023°38'0 0.0
2017-Sep-14 22:30N 37°56' E 023°38'0 0.0
2017-Sep-14 21:57N 37°56' E 023°38'0 0.0
2017-Sep-14 21:30N 37°56' E 023°38'2 2.2
2017-Sep-14 20:37N 37°57' E 023°35'212.9
2017-Sep-14 20:30N 37°56' E 023°37'0 0.9
2017-Sep-14 19:59N 37°56' E 023°38'2 3.3
2017-Sep-14 19:30N 37°56' E 023°36'1 1.4
2017-Sep-14 19:00N 37°56' E 023°36'0 0.9
2017-Sep-14 18:29N 37°57' E 023°37'1 1.7
2017-Sep-14 18:00N 37°56' E 023°38'0 0.6
2017-Sep-14 17:30N 37°57' E 023°38'1 1.7
2017-Sep-14 17:00N 37°56' E 023°37'2 2.6
2017-Sep-14 16:25N 37°57' E 023°35'1 2.1
2017-Sep-14 16:00N 37°56' E 023°36'1 0.7
2017-Sep-14 14:42N 37°56' E 023°35'2 9.3
2017-Sep-14 14:30N 37°56' E 023°38'1 2.0
2017-Sep-14 13:59N 37°56' E 023°36'1 2.1
2017-Sep-14 13:29N 37°56' E 023°38'0 0.0
2017-Sep-14 12:59N 37°56' E 023°38'1 2.3
2017-Sep-14 12:29N 37°57' E 023°36'1 1.5
2017-Sep-14 11:59N 37°56' E 023°37'1 1.4
2017-Sep-14 11:29N 37°56' E 023°38'0 0.5
2017-Sep-14 11:00N 37°56' E 023°37'0 0.5
2017-Sep-14 10:30N 37°56' E 023°38'1 2.5
2017-Sep-14 10:00N 37°57' E 023°36'1 1.5
2017-Sep-14 09:29N 37°56' E 023°36'1 2.9
2017-Sep-14 08:58N 37°57' E 023°35'2 4.5
2017-Sep-14 08:30N 37°56' E 023°38'2 3.1
2017-Sep-14 07:54N 37°55' E 023°36'2 2.2
2017-Sep-14 06:46N 37°57' E 023°35'2 7.0
2017-Sep-14 06:30N 37°56' E 023°37'1 2.0
2017-Sep-14 05:56N 37°57' E 023°36'1 2.9
2017-Sep-14 05:30N 37°56' E 023°37'2 0.1
2017-Sep-12 21:54N 37°57' E 023°36'0 0.1
2017-Sep-12 20:53N 37°57' E 023°36'3 7.1
2017-Sep-12 20:30N 37°55' E 023°37'3 4.6
2017-Sep-12 19:56N 37°57' E 023°36'2 3.2
2017-Sep-12 19:24N 37°56' E 023°38'0 0.0
2017-Sep-12 18:57N 37°56' E 023°38'0 0.0
2017-Sep-12 18:30N 37°56' E 023°38'2 3.5
2017-Sep-12 17:59N 37°57' E 023°35'0 0.3
2017-Sep-12 17:25N 37°57' E 023°36'2 4.0
2017-Sep-12 17:00N 37°55' E 023°36'2 2.1
2017-Sep-12 16:11N 37°57' E 023°36'0 0.5
2017-Sep-12 15:35N 37°57' E 023°36'112.9
2017-Sep-12 15:30N 37°56' E 023°37'1 0.9
2017-Sep-12 14:57N 37°56' E 023°38'2 5.3
2017-Sep-12 14:29N 37°57' E 023°35'2 5.2
2017-Sep-12 14:00N 37°56' E 023°38'0 0.5
2017-Sep-12 13:30N 37°56' E 023°37'0 0.4
2017-Sep-12 12:55N 37°56' E 023°38'0 0.0
2017-Sep-12 12:28N 37°56' E 023°38'0 0.0
2017-Sep-12 12:00N 37°56' E 023°38'0 0.0
2017-Sep-12 11:29N 37°56' E 023°38'0 0.0
2017-Sep-12 11:00N 37°56' E 023°38'0 0.0
2017-Sep-12 10:30N 37°56' E 023°38'1 2.0
2017-Sep-12 09:50N 37°57' E 023°36'1 3.6
2017-Sep-12 09:28N 37°56' E 023°38'1 1.8
2017-Sep-12 08:58N 37°55' E 023°37'1 1.5
2017-Sep-12 08:27N 37°56' E 023°37'0 0.5
2017-Sep-12 07:55N 37°56' E 023°38'0 0.0
2017-Sep-12 07:29N 37°56' E 023°38'0 0.0
2017-Sep-12 06:59N 37°56' E 023°38'2 3.5
2017-Sep-12 06:30N 37°57' E 023°36'1 1.4
2017-Sep-12 06:00N 37°57' E 023°36'2 3.6
2017-Sep-12 05:30N 37°55' E 023°36'2 3.9
2017-Sep-12 04:59N 37°57' E 023°36'3 6.0
2017-Sep-12 04:24N 37°54' E 023°37'1 1.3
2017-Sep-12 03:45N 37°54' E 023°37'2 6.9
2017-Sep-12 03:29N 37°56' E 023°37'0 0.7
2017-Sep-12 02:57N 37°56' E 023°38'0 0.0
2017-Sep-12 02:30N 37°56' E 023°38'0 0.0
2017-Sep-12 01:57N 37°56' E 023°38'0 0.0
2017-Sep-12 01:30N 37°56' E 023°38'0 0.0
2017-Sep-12 01:00N 37°56' E 023°38'0 0.0
2017-Sep-12 00:30N 37°56' E 023°38'1 1.5
2017-Sep-12 00:00N 37°56' E 023°37'1 0.7
2017-Sep-11 22:59N 37°57' E 023°36'1 1.0
2017-Sep-11 22:25N 37°57' E 023°36'0 0.6
2017-Sep-11 21:56N 37°57' E 023°36'2 3.5
2017-Sep-11 21:30N 37°56' E 023°37'1 1.7
2017-Sep-11 20:56N 37°57' E 023°38'0 0.6
2017-Sep-11 20:27N 37°56' E 023°38'0 0.0
2017-Sep-11 19:51N 37°56' E 023°38'0 0.0
2017-Sep-11 19:27N 37°56' E 023°38'0 0.1
2017-Sep-11 19:00N 37°56' E 023°38'2 3.3
2017-Sep-11 18:29N 37°57' E 023°35'1 2.2
2017-Sep-11 18:00N 37°57' E 023°37'1 1.5
2017-Sep-11 17:29N 37°56' E 023°38'0 0.0
2017-Sep-11 16:53N 37°56' E 023°38'0 0.0
2017-Sep-11 16:29N 37°56' E 023°38'1 2.8
2017-Sep-11 15:58N 37°56' E 023°36'1 1.0
2017-Sep-11 14:40N 37°57' E 023°35'1 6.9
2017-Sep-11 14:30N 37°57' E 023°36'1 0.7
2017-Sep-11 13:21N 37°57' E 023°35'2 5.5
2017-Sep-11 12:57N 37°56' E 023°38'0 0.0
2017-Sep-11 12:29N 37°56' E 023°38'0 0.0
2017-Sep-11 11:47N 37°56' E 023°38'0 0.0
2017-Sep-11 11:29N 37°56' E 023°38'0 0.0
2017-Sep-11 10:59N 37°56' E 023°38'0 0.0
2017-Sep-11 10:29N 37°56' E 023°38'0 0.0
2017-Sep-11 09:59N 37°56' E 023°38'0 0.0
2017-Sep-11 09:20N 37°56' E 023°38'0 0.0
2017-Sep-11 08:56N 37°56' E 023°38'  

Dump ship's entire track history